Time;durP1;ratioP1;P1;durP2;ratioP2;P2;SDS_P1;SDS_P2;PMS_P1;PMS_P2;Temp;Humidity;BMP_temperature;BMP_pressure;BME280_temperature;BME280_humidity;BME280_pressure;Samples;Min_cycle;Max_cycle;Signal;HPM_P1;HPM_P2
2022/05/23 00:01:27;;;;;;;5.85;5.35;;;;;;;;;;5013099;28;20037;-61
2022/05/23 00:03:53;;;;;;;5.88;5.43;;;;;;;;;;5004963;28;20029;-61
2022/05/23 00:06:20;;;;;;;7.10;5.57;;;;;;;;;;5024416;28;20512;-61
2022/05/23 00:08:47;;;;;;;6.82;5.70;;;;;;;;;;5010034;28;20060;-61
2022/05/23 00:11:12;;;;;;;6.10;5.70;;;;;;;;;;5013172;28;20034;-61
2022/05/23 00:13:38;;;;;;;6.00;5.60;;;;;;;;;;5017667;28;20033;-61
2022/05/23 00:16:05;;;;;;;6.00;5.50;;;;;;;;;;5019392;28;20125;-61
2022/05/23 00:18:31;;;;;;;6.13;5.63;;;;;;;;;;4995948;28;20030;-61
2022/05/23 00:20:56;;;;;;;5.90;5.40;;;;;;;;;;4999753;28;20045;-61
2022/05/23 00:23:22;;;;;;;6.10;5.60;;;;;;;;;;5014244;28;20037;-61
2022/05/23 00:25:48;;;;;;;6.20;5.60;;;;;;;;;;5006172;28;20034;-61
2022/05/23 00:28:14;;;;;;;6.07;5.47;;;;;;;;;;5006810;28;20034;-61
2022/05/23 00:30:40;;;;;;;5.70;5.30;;;;;;;;;;5009753;28;20044;-61
2022/05/23 00:35:54;;;;;;;6.90;5.63;;;;;;;;;;4995599;28;20137;-61
2022/05/23 00:38:21;;;;;;;6.18;5.68;;;;;;;;;;5001644;28;20111;-61
2022/05/23 00:43:50;;;;;;;6.07;5.53;;;;;;;;;;5007122;28;20045;-61
2022/05/23 00:46:15;;;;;;;6.10;5.50;;;;;;;;;;5003729;28;20482;-60
2022/05/23 00:48:41;;;;;;;6.25;5.75;;;;;;;;;;5009371;28;20052;-61
2022/05/23 00:51:13;;;;;;;6.55;6.05;;;;;;;;;;5007768;28;20058;-61
2022/05/23 00:53:44;;;;;;;6.60;5.68;;;;;;;;;;4996615;28;20037;-61
2022/05/23 00:56:15;;;;;;;6.40;5.80;;;;;;;;;;5008654;28;20371;-61
2022/05/23 00:58:46;;;;;;;6.15;5.65;;;;;;;;;;5037750;28;20677;-61
2022/05/23 01:01:17;;;;;;;6.00;5.55;;;;;;;;;;5026487;28;20501;-61
2022/05/23 01:03:42;;;;;;;6.00;5.50;;;;;;;;;;5032734;28;20052;-61
2022/05/23 01:06:09;;;;;;;6.43;5.82;;;;;;;;;;5039220;28;20049;-61
2022/05/23 01:08:38;;;;;;;10.40;5.65;;;;;;;;;;5007348;28;20526;-60
2022/05/23 01:11:04;;;;;;;6.07;5.60;;;;;;;;;;5003567;28;20038;-61
2022/05/23 01:13:30;;;;;;;5.85;5.35;;;;;;;;;;4991300;28;20045;-61
2022/05/23 01:15:56;;;;;;;6.18;5.70;;;;;;;;;;5039636;28;20053;-61
2022/05/23 01:18:26;;;;;;;6.45;5.85;;;;;;;;;;5009566;28;20034;-61
2022/05/23 01:21:05;;;;;;;5.90;5.40;;;;;;;;;;4988691;28;20037;-61
2022/05/23 01:23:39;;;;;;;7.15;5.80;;;;;;;;;;5030216;28;20061;-61
2022/05/23 01:26:20;;;;;;;6.53;6.00;;;;;;;;;;4992385;28;20038;-61
2022/05/23 01:28:51;;;;;;;6.88;6.20;;;;;;;;;;5005543;28;20129;-61
2022/05/23 01:31:37;;;;;;;6.40;5.80;;;;;;;;;;5000840;28;20084;-61
2022/05/23 01:34:12;;;;;;;6.50;6.00;;;;;;;;;;5033630;28;20529;-61
2022/05/23 01:36:47;;;;;;;6.72;5.70;;;;;;;;;;5038037;28;20456;-61
2022/05/23 01:39:13;;;;;;;6.55;5.60;;;;;;;;;;5030975;28;20038;-61
2022/05/23 01:41:39;;;;;;;6.38;5.78;;;;;;;;;;4993914;28;20037;-61
2022/05/23 01:44:05;;;;;;;6.40;5.90;;;;;;;;;;5037109;28;20036;-61
2022/05/23 01:46:35;;;;;;;6.63;5.88;;;;;;;;;;5006451;28;20140;-61
2022/05/23 01:49:11;;;;;;;6.25;5.72;;;;;;;;;;5029945;28;20061;-61
2022/05/23 01:51:36;;;;;;;7.68;5.80;;;;;;;;;;5037524;28;20131;-61
2022/05/23 01:54:02;;;;;;;6.78;5.95;;;;;;;;;;5004940;28;20075;-61
2022/05/23 01:56:30;;;;;;;6.72;6.05;;;;;;;;;;4995097;28;20469;-60
2022/05/23 02:01:43;;;;;;;6.45;5.95;;;;;;;;;;5004506;28;20038;-61
2022/05/23 02:04:16;;;;;;;6.15;5.60;;;;;;;;;;5008411;28;20049;-61
2022/05/23 02:06:43;;;;;;;7.28;5.90;;;;;;;;;;5027972;28;20113;-62
2022/05/23 02:09:26;;;;;;;7.22;5.95;;;;;;;;;;5006429;28;20037;-60
2022/05/23 02:12:00;;;;;;;6.20;5.65;;;;;;;;;;5027848;28;20488;-61
2022/05/23 02:14:28;;;;;;;6.40;5.90;;;;;;;;;;5002774;28;21045;-61
2022/05/23 02:16:56;;;;;;;6.93;5.78;;;;;;;;;;5037914;28;20109;-61
2022/05/23 02:19:24;;;;;;;6.28;5.78;;;;;;;;;;5008620;28;20048;-61
2022/05/23 02:22:01;;;;;;;6.93;6.00;;;;;;;;;;5008503;28;20635;-61
2022/05/23 02:24:26;;;;;;;6.38;5.82;;;;;;;;;;5008578;28;20038;-61
2022/05/23 02:26:52;;;;;;;6.40;5.80;;;;;;;;;;5004021;28;20401;-61
2022/05/23 02:29:31;;;;;;;6.05;5.65;;;;;;;;;;5040938;28;20564;-61
2022/05/23 02:31:57;;;;;;;6.50;6.00;;;;;;;;;;5010798;28;20664;-61
2022/05/23 02:34:23;;;;;;;6.75;6.10;;;;;;;;;;4990185;28;20049;-62
2022/05/23 02:36:51;;;;;;;6.47;5.47;;;;;;;;;;5037785;28;20431;-61
2022/05/23 02:39:23;;;;;;;6.40;5.82;;;;;;;;;;5001007;28;20093;-61
2022/05/23 02:41:50;;;;;;;6.50;6.00;;;;;;;;;;5007606;28;20088;-61
2022/05/23 02:44:18;;;;;;;6.03;5.55;;;;;;;;;;5027839;28;20038;-60
2022/05/23 02:46:44;;;;;;;5.90;5.40;;;;;;;;;;5006961;28;20040;-61
2022/05/23 02:49:14;;;;;;;6.22;5.40;;;;;;;;;;5008369;28;20030;-61
2022/05/23 02:51:44;;;;;;;6.30;5.80;;;;;;;;;;5004994;28;20094;-61
2022/05/23 02:54:12;;;;;;;7.03;6.00;;;;;;;;;;5008289;28;20038;-61
2022/05/23 02:56:39;;;;;;;6.18;5.68;;;;;;;;;;5007915;28;20038;-62
2022/05/23 02:59:06;;;;;;;6.43;5.75;;;;;;;;;;5008712;28;20076;-61
2022/05/23 03:01:32;;;;;;;6.22;5.72;;;;;;;;;;5004725;28;20038;-61
2022/05/23 03:03:59;;;;;;;6.53;5.97;;;;;;;;;;5007202;28;20048;-59
2022/05/23 03:06:24;;;;;;;6.57;5.97;;;;;;;;;;5009171;28;20041;-61
2022/05/23 03:08:50;;;;;;;6.47;5.97;;;;;;;;;;4999893;28;20600;-61
2022/05/23 03:11:17;;;;;;;9.10;6.05;;;;;;;;;;5001134;28;20037;-60
2022/05/23 03:13:44;;;;;;;8.15;5.82;;;;;;;;;;5004926;28;20049;-61
2022/05/23 03:16:12;;;;;;;6.50;5.88;;;;;;;;;;5004715;28;20037;-61
2022/05/23 03:18:40;;;;;;;6.22;5.53;;;;;;;;;;5023375;28;20042;-59
2022/05/23 03:21:09;;;;;;;7.07;5.70;;;;;;;;;;5005883;28;20050;-59
2022/05/23 03:29:10;;;;;;;5.82;5.43;;;;;;;;;;5007463;28;20116;-59
2022/05/23 03:31:38;;;;;;;6.22;5.70;;;;;;;;;;4999461;28;20727;-58
2022/05/23 03:34:05;;;;;;;6.68;6.10;;;;;;;;;;5000261;28;20034;-59
2022/05/23 03:36:32;;;;;;;5.97;5.25;;;;;;;;;;4995171;28;20077;-58
2022/05/23 03:38:58;;;;;;;6.05;5.50;;;;;;;;;;4990433;28;20042;-59
2022/05/23 03:41:23;;;;;;;6.18;5.68;;;;;;;;;;5009493;28;20408;-59
2022/05/23 03:43:50;;;;;;;5.97;5.47;;;;;;;;;;5002063;28;20041;-58
2022/05/23 03:46:16;;;;;;;6.00;5.50;;;;;;;;;;4994637;28;20042;-59
2022/05/23 03:48:42;;;;;;;5.90;5.50;;;;;;;;;;5011233;28;20025;-59
2022/05/23 03:51:10;;;;;;;6.22;5.60;;;;;;;;;;5003972;28;20038;-58
2022/05/23 03:53:36;;;;;;;7.03;5.40;;;;;;;;;;5000320;28;20033;-60
2022/05/23 03:56:05;;;;;;;6.00;5.50;;;;;;;;;;5002348;28;20196;-59
2022/05/23 03:58:36;;;;;;;6.30;5.80;;;;;;;;;;5005728;28;20038;-60
2022/05/23 04:01:18;;;;;;;5.88;5.38;;;;;;;;;;5006564;28;20033;-59
2022/05/23 04:03:49;;;;;;;5.97;5.50;;;;;;;;;;5030345;28;20091;-59
2022/05/23 04:06:15;;;;;;;6.05;5.53;;;;;;;;;;5006175;28;20030;-60
2022/05/23 04:09:00;;;;;;;7.43;5.85;;;;;;;;;;5006962;28;20044;-60
2022/05/23 04:11:26;;;;;;;6.50;5.90;;;;;;;;;;5007704;28;20038;-60
2022/05/23 04:13:51;;;;;;;5.80;5.40;;;;;;;;;;5009468;28;20034;-60
2022/05/23 04:16:18;;;;;;;6.35;5.85;;;;;;;;;;5007474;28;20414;-59
2022/05/23 04:18:46;;;;;;;7.05;5.60;;;;;;;;;;5002705;28;20092;-58
2022/05/23 04:21:13;;;;;;;5.93;5.50;;;;;;;;;;5003004;28;20100;-60
2022/05/23 04:23:43;;;;;;;6.00;5.57;;;;;;;;;;5042283;28;20042;-60
2022/05/23 04:26:09;;;;;;;5.90;5.45;;;;;;;;;;5006846;28;20046;-59
2022/05/23 04:28:41;;;;;;;5.60;5.10;;;;;;;;;;5004453;28;20037;-57
2022/05/23 04:31:08;;;;;;;7.72;6.15;;;;;;;;;;5009475;28;20037;-59
2022/05/23 04:36:39;;;;;;;7.03;6.40;;;;;;;;;;5001366;28;20037;-57
2022/05/23 04:39:05;;;;;;;6.25;5.70;;;;;;;;;;5003700;28;20069;-58
2022/05/23 04:41:35;;;;;;;7.88;6.00;;;;;;;;;;5004564;28;20457;-59
2022/05/23 04:44:01;;;;;;;11.68;6.38;;;;;;;;;;5039507;28;20587;-58
2022/05/23 04:46:27;;;;;;;10.90;6.95;;;;;;;;;;5003351;28;20693;-59
2022/05/23 04:52:16;;;;;;;10.27;9.45;;;;;;;;;;5008137;28;20048;-57
2022/05/23 04:54:42;;;;;;;16.77;12.07;;;;;;;;;;5039726;28;20038;-59
2022/05/23 04:57:10;;;;;;;13.32;12.30;;;;;;;;;;5001346;28;20654;-54
2022/05/23 04:59:36;;;;;;;14.43;13.02;;;;;;;;;;5007406;28;20045;-59
2022/05/23 05:02:04;;;;;;;13.45;12.32;;;;;;;;;;5007392;28;20065;-60
2022/05/23 05:04:30;;;;;;;13.60;12.20;;;;;;;;;;5006063;28;20033;-58
2022/05/23 05:06:56;;;;;;;13.43;12.30;;;;;;;;;;5006995;28;20030;-57
2022/05/23 05:09:23;;;;;;;13.85;12.63;;;;;;;;;;5006609;28;20543;-59
2022/05/23 05:11:57;;;;;;;14.20;12.93;;;;;;;;;;5001127;28;20044;-58
2022/05/23 05:14:28;;;;;;;16.77;13.35;;;;;;;;;;5005035;28;20452;-58
2022/05/23 05:16:59;;;;;;;15.13;13.68;;;;;;;;;;5043199;28;20041;-59
2022/05/23 05:19:25;;;;;;;15.77;13.13;;;;;;;;;;4991824;28;20122;-57
2022/05/23 05:22:11;;;;;;;14.80;13.45;;;;;;;;;;4995886;28;20067;-58
2022/05/23 05:24:55;;;;;;;13.85;12.55;;;;;;;;;;5017113;28;20124;-59
2022/05/23 05:27:50;;;;;;;15.10;13.63;;;;;;;;;;4982255;28;20378;-59
2022/05/23 05:30:19;;;;;;;13.70;12.63;;;;;;;;;;5006655;28;20064;-59
2022/05/23 05:32:48;;;;;;;14.50;13.10;;;;;;;;;;5012295;28;20044;-59
2022/05/23 05:35:29;;;;;;;14.02;12.98;;;;;;;;;;5009976;28;20425;-60
2022/05/23 05:38:07;;;;;;;15.50;13.88;;;;;;;;;;5039242;28;20121;-58
2022/05/23 05:40:35;;;;;;;14.45;13.35;;;;;;;;;;5003250;28;20042;-57
2022/05/23 05:43:10;;;;;;;14.25;12.93;;;;;;;;;;5003349;28;20474;-59
2022/05/23 05:45:45;;;;;;;13.70;12.43;;;;;;;;;;5006790;28;20041;-59
2022/05/23 05:48:23;;;;;;;14.38;13.05;;;;;;;;;;5007601;28;20053;-57
2022/05/23 05:50:49;;;;;;;14.45;13.18;;;;;;;;;;5010044;28;20030;-59
2022/05/23 05:53:23;;;;;;;13.88;12.57;;;;;;;;;;4998687;28;20042;-56
2022/05/23 05:55:52;;;;;;;13.60;12.32;;;;;;;;;;5005225;28;20034;-59
2022/05/23 05:58:20;;;;;;;14.30;13.07;;;;;;;;;;4994632;28;20624;-59
2022/05/23 06:00:49;;;;;;;14.48;13.15;;;;;;;;;;5004426;28;20444;-59
2022/05/23 06:03:16;;;;;;;13.25;12.35;;;;;;;;;;5012647;28;20065;-59
2022/05/23 06:11:36;;;;;;;13.52;12.40;;;;;;;;;;5008112;28;20037;-59
2022/05/23 06:14:11;;;;;;;14.25;13.05;;;;;;;;;;5011002;28;20315;-59
2022/05/23 06:16:40;;;;;;;14.27;13.10;;;;;;;;;;5002830;28;20038;-59
2022/05/23 06:19:17;;;;;;;14.15;13.15;;;;;;;;;;4995079;28;20042;-59
2022/05/23 06:22:10;;;;;;;13.30;12.30;;;;;;;;;;5007055;28;20051;-57
2022/05/23 06:24:41;;;;;;;13.20;12.30;;;;;;;;;;5006731;28;20055;-60
2022/05/23 06:27:08;;;;;;;13.30;12.23;;;;;;;;;;5008951;28;20119;-60
2022/05/23 06:29:56;;;;;;;13.25;12.32;;;;;;;;;;5012515;28;20037;-57
2022/05/23 06:32:33;;;;;;;12.90;11.48;;;;;;;;;;5008886;28;20044;-60
2022/05/23 06:34:59;;;;;;;12.20;11.02;;;;;;;;;;5007321;28;20485;-60
2022/05/23 06:37:25;;;;;;;12.85;11.80;;;;;;;;;;5001778;28;20140;-60
2022/05/23 06:40:04;;;;;;;11.38;10.60;;;;;;;;;;5035647;28;20543;-59
2022/05/23 06:42:48;;;;;;;11.90;10.90;;;;;;;;;;5003103;28;20037;-60
2022/05/23 06:45:33;;;;;;;11.55;10.65;;;;;;;;;;5008200;28;20041;-59
2022/05/23 06:48:23;;;;;;;12.05;11.15;;;;;;;;;;5001246;28;20133;-60
2022/05/23 06:51:02;;;;;;;11.73;10.85;;;;;;;;;;5017971;28;20083;-59
2022/05/23 06:53:34;;;;;;;13.93;11.90;;;;;;;;;;5014881;28;20372;-60
2022/05/23 06:56:20;;;;;;;11.90;11.10;;;;;;;;;;4976950;28;20061;-60
2022/05/23 06:58:51;;;;;;;12.85;11.75;;;;;;;;;;5024547;23;20034;-84
2022/05/23 07:01:33;;;;;;;13.00;12.10;;;;;;;;;;4987104;28;20107;-84
2022/05/23 07:04:21;;;;;;;12.77;11.63;;;;;;;;;;5001394;28;20035;-83
2022/05/23 07:12:41;;;;;;;13.05;11.65;;;;;;;;;;5043162;23;20044;-65
2022/05/23 07:15:08;;;;;;;13.07;12.15;;;;;;;;;;5009321;28;20519;-65
2022/05/23 07:17:38;;;;;;;11.88;10.88;;;;;;;;;;5019816;28;20087;-65
2022/05/23 07:20:18;;;;;;;11.45;10.52;;;;;;;;;;5007491;28;20041;-65
2022/05/23 07:23:03;;;;;;;11.10;10.30;;;;;;;;;;5010881;28;20488;-65
2022/05/23 07:25:31;;;;;;;12.35;11.45;;;;;;;;;;5014301;28;20091;-65
2022/05/23 07:27:57;;;;;;;11.63;10.82;;;;;;;;;;5026041;28;20033;-63
2022/05/23 07:30:23;;;;;;;13.25;12.00;;;;;;;;;;5010949;28;20068;-65
2022/05/23 07:32:50;;;;;;;12.70;11.80;;;;;;;;;;5012468;28;20302;-65
2022/05/23 07:35:28;;;;;;;11.85;10.88;;;;;;;;;;5026805;28;20037;-66
2022/05/23 07:37:58;;;;;;;12.82;11.63;;;;;;;;;;5009085;28;20045;-66
2022/05/23 07:40:24;;;;;;;12.07;11.23;;;;;;;;;;5007292;28;20038;-66
2022/05/23 07:43:04;;;;;;;12.10;11.02;;;;;;;;;;5021315;28;20388;-66
2022/05/23 07:45:30;;;;;;;11.90;11.00;;;;;;;;;;5008380;28;20103;-66
2022/05/23 07:47:56;;;;;;;10.82;10.02;;;;;;;;;;5010888;28;20042;-65
2022/05/23 07:50:25;;;;;;;11.52;10.68;;;;;;;;;;5008059;28;20392;-63
2022/05/23 08:01:18;;;;;;;10.73;9.98;;;;;;;;;;5024374;28;20040;-65
2022/05/23 08:03:55;;;;;;;11.30;10.27;;;;;;;;;;5024771;28;20565;-65
2022/05/23 08:06:28;;;;;;;10.63;9.70;;;;;;;;;;5012207;28;20060;-63
2022/05/23 08:08:54;;;;;;;11.60;10.45;;;;;;;;;;5021386;28;20389;-63
2022/05/23 08:11:21;;;;;;;11.35;10.40;;;;;;;;;;5007969;28;20500;-64
2022/05/23 08:14:07;;;;;;;11.32;10.23;;;;;;;;;;5010273;28;20034;-66
2022/05/23 08:16:41;;;;;;;10.93;9.80;;;;;;;;;;5012411;28;20062;-64
2022/05/23 08:19:09;;;;;;;9.23;8.52;;;;;;;;;;5015306;28;20025;-65
2022/05/23 08:21:43;;;;;;;8.98;8.10;;;;;;;;;;5026463;28;20046;-65
2022/05/23 08:24:09;;;;;;;9.18;8.23;;;;;;;;;;5015542;28;20129;-64
2022/05/23 08:26:35;;;;;;;8.18;7.60;;;;;;;;;;5032776;28;20030;-64
2022/05/23 08:29:01;;;;;;;9.07;8.27;;;;;;;;;;5013844;28;20461;-65
2022/05/23 08:31:36;;;;;;;8.80;7.97;;;;;;;;;;5011760;28;20048;-65
2022/05/23 08:34:18;;;;;;;8.38;7.68;;;;;;;;;;5010565;28;20034;-64
2022/05/23 08:36:44;;;;;;;8.63;7.90;;;;;;;;;;5007505;28;20044;-65
2022/05/23 08:39:10;;;;;;;8.70;8.00;;;;;;;;;;5007210;28;20096;-64
2022/05/23 08:41:54;;;;;;;8.60;7.93;;;;;;;;;;5010157;28;20420;-65
2022/05/23 08:45:04;;;;;;;8.90;7.80;;;;;;;;;;5003421;28;20073;-65
2022/05/23 08:47:49;;;;;;;8.38;7.68;;;;;;;;;;5007285;28;20116;-66
2022/05/23 08:50:19;;;;;;;7.90;7.30;;;;;;;;;;5006846;28;20034;-66
2022/05/23 08:52:52;;;;;;;8.10;7.40;;;;;;;;;;5010682;28;20049;-66
2022/05/23 08:55:46;;;;;;;8.40;7.50;;;;;;;;;;5012016;28;20156;-65
2022/05/23 08:58:48;;;;;;;8.00;7.40;;;;;;;;;;5019850;28;20101;-65
2022/05/23 09:01:44;;;;;;;8.70;7.80;;;;;;;;;;5011121;28;20042;-66
2022/05/23 09:04:30;;;;;;;8.48;7.78;;;;;;;;;;5019121;28;20053;-66
2022/05/23 09:06:59;;;;;;;8.40;7.80;;;;;;;;;;5030124;28;20050;-66
2022/05/23 09:09:25;;;;;;;8.20;7.50;;;;;;;;;;5014458;28;20064;-66
2022/05/23 09:12:09;;;;;;;8.63;7.93;;;;;;;;;;5012551;28;20065;-66
2022/05/23 09:14:39;;;;;;;9.25;8.50;;;;;;;;;;5011740;28;20493;-66
2022/05/23 09:17:21;;;;;;;10.02;8.75;;;;;;;;;;5013454;28;20545;-66
2022/05/23 09:20:00;;;;;;;9.50;8.60;;;;;;;;;;5021767;28;20252;-66
2022/05/23 09:22:58;;;;;;;8.98;8.07;;;;;;;;;;5021971;28;20237;-66
2022/05/23 09:25:26;;;;;;;9.55;8.85;;;;;;;;;;5013469;28;20523;-66
2022/05/23 09:28:09;;;;;;;9.52;8.70;;;;;;;;;;5012198;28;20045;-67
2022/05/23 09:30:40;;;;;;;9.73;8.85;;;;;;;;;;5011302;28;20037;-67
2022/05/23 09:33:10;;;;;;;9.63;8.30;;;;;;;;;;5011829;28;20113;-67
2022/05/23 09:35:42;;;;;;;8.77;7.97;;;;;;;;;;5011734;28;20084;-67
2022/05/23 09:38:29;;;;;;;8.98;8.18;;;;;;;;;;5024714;28;20036;-66
2022/05/23 09:41:07;;;;;;;9.10;8.40;;;;;;;;;;5016934;28;20050;-66
2022/05/23 09:49:21;;;;;;;8.10;7.40;;;;;;;;;;5011502;28;20563;-65
2022/05/23 09:52:17;;;;;;;8.88;7.80;;;;;;;;;;5011261;28;20044;-66
2022/05/23 09:54:53;;;;;;;8.55;7.85;;;;;;;;;;5019031;28;20069;-66
2022/05/23 09:57:28;;;;;;;10.27;8.10;;;;;;;;;;5016894;28;20559;-67
2022/05/23 09:59:58;;;;;;;8.38;7.57;;;;;;;;;;5011388;28;20033;-67
2022/05/23 10:02:29;;;;;;;8.60;8.00;;;;;;;;;;5013244;28;20042;-66
2022/05/23 10:04:56;;;;;;;8.15;7.45;;;;;;;;;;5010953;28;20100;-66
2022/05/23 10:07:36;;;;;;;8.52;7.68;;;;;;;;;;5011253;28;20042;-66
2022/05/23 10:10:27;;;;;;;8.75;7.95;;;;;;;;;;5010408;28;20446;-66
2022/05/23 10:13:23;;;;;;;10.90;8.43;;;;;;;;;;5010337;28;20404;-67
2022/05/23 10:16:01;;;;;;;9.07;8.38;;;;;;;;;;5009821;28;20046;-66
2022/05/23 10:18:36;;;;;;;9.15;7.97;;;;;;;;;;5014354;28;20038;-66
2022/05/23 10:21:20;;;;;;;9.48;8.77;;;;;;;;;;5011073;28;20092;-66
2022/05/23 10:24:30;;;;;;;9.25;8.55;;;;;;;;;;5016585;28;20117;-65
2022/05/23 10:27:02;;;;;;;9.27;8.27;;;;;;;;;;4961745;28;20078;-66
2022/05/23 10:29:39;;;;;;;8.55;7.72;;;;;;;;;;4967923;28;20054;-66
2022/05/23 10:32:08;;;;;;;8.45;7.50;;;;;;;;;;4968691;28;20035;-66
2022/05/23 10:34:50;;;;;;;9.35;7.38;;;;;;;;;;4968649;28;20038;-65
2022/05/23 10:37:20;;;;;;;9.25;7.97;;;;;;;;;;4967115;28;20593;-65
2022/05/23 10:42:46;;;;;;;8.70;7.80;;;;;;;;;;4953998;28;20414;-67
2022/05/23 10:45:37;;;;;;;8.85;8.00;;;;;;;;;;4951098;28;20585;-66
2022/05/23 10:48:15;;;;;;;9.05;8.10;;;;;;;;;;4967582;28;20054;-67
2022/05/23 10:51:04;;;;;;;11.93;8.40;;;;;;;;;;4968330;28;20043;-66
2022/05/23 10:53:55;;;;;;;8.95;8.10;;;;;;;;;;4962717;28;20050;-66
2022/05/23 10:56:48;;;;;;;9.55;8.57;;;;;;;;;;4962137;28;20046;-66
2022/05/23 10:59:41;;;;;;;10.40;8.07;;;;;;;;;;4967953;28;20157;-67
2022/05/23 11:02:35;;;;;;;8.75;7.95;;;;;;;;;;4988129;28;20519;-66
2022/05/23 11:05:07;;;;;;;9.68;8.77;;;;;;;;;;4947536;29;20058;-67
2022/05/23 11:07:51;;;;;;;12.73;9.00;;;;;;;;;;4949276;29;20051;-66
2022/05/23 11:10:28;;;;;;;10.38;8.85;;;;;;;;;;4949019;29;20051;-65
2022/05/23 11:13:12;;;;;;;10.75;9.10;;;;;;;;;;4948039;29;20039;-66
2022/05/23 11:15:49;;;;;;;11.45;9.57;;;;;;;;;;4948736;29;20305;-65
2022/05/23 11:18:45;;;;;;;12.38;10.38;;;;;;;;;;4948966;29;20600;-64
2022/05/23 11:21:19;;;;;;;12.73;11.57;;;;;;;;;;4946508;29;20499;-63
2022/05/23 11:23:54;;;;;;;14.07;12.75;;;;;;;;;;4945553;29;20143;-63
2022/05/23 11:26:29;;;;;;;13.15;12.15;;;;;;;;;;4946449;28;20047;-64
2022/05/23 11:34:52;;;;;;;13.73;12.48;;;;;;;;;;4948280;29;20522;-64
2022/05/23 11:40:06;;;;;;;14.10;12.75;;;;;;;;;;4945910;29;20042;-63
2022/05/23 11:43:08;;;;;;;14.38;13.07;;;;;;;;;;5016115;28;20100;-63
2022/05/23 11:45:59;;;;;;;13.88;12.50;;;;;;;;;;5025802;28;20354;-62
2022/05/23 11:48:37;;;;;;;14.20;12.75;;;;;;;;;;5009901;28;20413;-63
2022/05/23 11:51:12;;;;;;;13.70;12.50;;;;;;;;;;5009397;28;20084;-65
2022/05/23 11:53:57;;;;;;;13.18;11.85;;;;;;;;;;5008975;28;20034;-64
2022/05/23 11:56:40;;;;;;;13.20;12.10;;;;;;;;;;5010169;28;20435;-65
2022/05/23 11:59:08;;;;;;;16.80;12.52;;;;;;;;;;5005388;28;20041;-64
2022/05/23 12:01:34;;;;;;;13.45;12.05;;;;;;;;;;5007821;28;20048;-65
2022/05/23 12:04:00;;;;;;;13.57;12.27;;;;;;;;;;5007192;28;20045;-61
2022/05/23 12:06:28;;;;;;;19.67;12.60;;;;;;;;;;5008098;28;20077;-64
2022/05/23 12:08:57;;;;;;;13.95;12.70;;;;;;;;;;5008250;28;20041;-65
2022/05/23 12:11:24;;;;;;;13.63;11.77;;;;;;;;;;5007798;28;20081;-64
2022/05/23 12:13:51;;;;;;;12.70;11.40;;;;;;;;;;5006658;28;20531;-61
2022/05/23 12:16:37;;;;;;;12.70;11.38;;;;;;;;;;5006919;28;20041;-64
2022/05/23 12:19:08;;;;;;;50.45;14.70;;;;;;;;;;5007052;28;20037;-63
2022/05/23 12:21:37;;;;;;;19.48;14.13;;;;;;;;;;5007108;28;20088;-63
2022/05/23 12:24:21;;;;;;;18.48;13.30;;;;;;;;;;5007113;28;20129;-64
2022/05/23 12:26:52;;;;;;;18.42;12.70;;;;;;;;;;5010994;28;20053;-64
2022/05/23 12:29:31;;;;;;;13.80;12.38;;;;;;;;;;5006311;28;20103;-62
2022/05/23 12:32:16;;;;;;;12.40;11.40;;;;;;;;;;5006239;28;20383;-64
2022/05/23 12:34:46;;;;;;;13.15;11.73;;;;;;;;;;5006153;28;20116;-63
2022/05/23 12:37:19;;;;;;;12.65;11.60;;;;;;;;;;5019204;28;20049;-63
2022/05/23 12:40:05;;;;;;;11.93;10.93;;;;;;;;;;5018764;28;20491;-62
2022/05/23 12:43:05;;;;;;;11.80;11.00;;;;;;;;;;5006838;28;20077;-64
2022/05/23 12:45:52;;;;;;;12.07;11.07;;;;;;;;;;5006456;28;20041;-63
2022/05/23 12:48:24;;;;;;;11.77;10.77;;;;;;;;;;5021725;28;20037;-64
2022/05/23 12:51:26;;;;;;;12.02;11.10;;;;;;;;;;5020210;28;20037;-63
2022/05/23 12:54:01;;;;;;;12.45;11.25;;;;;;;;;;5009170;28;20037;-64
2022/05/23 12:56:57;;;;;;;12.85;11.65;;;;;;;;;;5010651;28;20580;-63
2022/05/23 12:59:23;;;;;;;12.95;11.90;;;;;;;;;;5023951;23;20065;-61
2022/05/23 13:01:56;;;;;;;13.27;11.85;;;;;;;;;;5023701;28;20041;-61
2022/05/23 13:04:28;;;;;;;14.68;12.07;;;;;;;;;;5025221;28;20120;-57
2022/05/23 13:07:12;;;;;;;12.38;11.20;;;;;;;;;;5019599;28;20397;-59
2022/05/23 13:09:52;;;;;;;12.68;11.43;;;;;;;;;;5016365;28;20045;-57
2022/05/23 13:12:27;;;;;;;12.23;11.20;;;;;;;;;;5017212;28;20030;-57
2022/05/23 13:14:53;;;;;;;13.52;11.38;;;;;;;;;;5025514;28;20030;-56
2022/05/23 13:17:51;;;;;;;14.10;11.05;;;;;;;;;;5022008;28;20045;-59
2022/05/23 13:23:23;;;;;;;11.85;10.73;;;;;;;;;;5002622;28;20136;-60
2022/05/23 13:25:49;;;;;;;13.13;10.80;;;;;;;;;;4999037;28;20042;-58
2022/05/23 13:28:17;;;;;;;11.82;10.68;;;;;;;;;;5002673;28;20515;-57
2022/05/23 13:30:47;;;;;;;14.60;11.00;;;;;;;;;;4997200;28;20515;-60
2022/05/23 13:33:30;;;;;;;11.45;10.50;;;;;;;;;;4997053;28;20041;-60
2022/05/23 13:36:05;;;;;;;11.73;10.73;;;;;;;;;;5001488;28;20037;-58
2022/05/23 13:38:36;;;;;;;12.32;10.88;;;;;;;;;;5002985;28;20050;-58
2022/05/23 13:41:05;;;;;;;11.15;10.13;;;;;;;;;;5002895;28;20044;-60
2022/05/23 13:43:45;;;;;;;11.38;10.38;;;;;;;;;;5001025;28;20124;-60
2022/05/23 13:46:16;;;;;;;10.48;9.57;;;;;;;;;;4982553;28;20522;-61
2022/05/23 13:48:46;;;;;;;11.30;9.57;;;;;;;;;;5002404;28;20248;-59
2022/05/23 13:51:20;;;;;;;9.45;8.65;;;;;;;;;;5004914;28;21075;-60
2022/05/23 13:53:52;;;;;;;9.13;8.15;;;;;;;;;;5002654;28;20124;-61
2022/05/23 13:56:19;;;;;;;8.80;7.97;;;;;;;;;;5012742;28;20419;-60
2022/05/23 13:58:49;;;;;;;8.80;8.02;;;;;;;;;;5028831;28;20041;-60
2022/05/23 14:01:19;;;;;;;8.60;7.90;;;;;;;;;;5015726;28;20044;-61
2022/05/23 14:03:50;;;;;;;10.68;7.38;;;;;;;;;;5023414;28;20136;-61
2022/05/23 14:06:24;;;;;;;8.73;7.93;;;;;;;;;;5028839;28;20034;-62
2022/05/23 14:08:55;;;;;;;8.82;7.05;;;;;;;;;;5016835;28;20076;-61
2022/05/23 14:11:26;;;;;;;8.20;7.40;;;;;;;;;;5016729;28;20046;-61
2022/05/23 14:13:57;;;;;;;10.45;7.80;;;;;;;;;;5028567;28;20235;-62
2022/05/23 14:16:23;;;;;;;10.70;7.07;;;;;;;;;;5022100;28;20045;-61
2022/05/23 14:19:41;;;;;;;7.57;6.88;;;;;;;;;;5013661;28;20555;-61
2022/05/23 14:22:20;;;;;;;7.93;7.13;;;;;;;;;;5028608;28;20060;-62
2022/05/23 14:24:50;;;;;;;8.50;6.80;;;;;;;;;;5016703;28;20037;-61
2022/05/23 14:27:18;;;;;;;8.43;7.07;;;;;;;;;;5019848;28;20086;-61
2022/05/23 14:29:46;;;;;;;7.20;6.60;;;;;;;;;;5028564;28;20060;-62
2022/05/23 14:32:26;;;;;;;8.35;7.55;;;;;;;;;;5020207;28;20033;-61
2022/05/23 14:34:52;;;;;;;10.90;7.55;;;;;;;;;;5010077;28;20042;-61
2022/05/23 14:37:21;;;;;;;9.63;7.25;;;;;;;;;;5028520;28;20060;-62
2022/05/23 14:39:51;;;;;;;8.00;7.20;;;;;;;;;;5015552;28;20128;-60
2022/05/23 14:42:24;;;;;;;12.13;7.03;;;;;;;;;;5012153;28;20056;-60
2022/05/23 14:45:09;;;;;;;10.40;6.80;;;;;;;;;;5027920;28;20049;-62
2022/05/23 14:47:35;;;;;;;7.50;6.78;;;;;;;;;;5023675;28;20034;-61
2022/05/23 14:50:18;;;;;;;7.00;6.40;;;;;;;;;;5011071;28;20213;-61
2022/05/23 14:55:18;;;;;;;7.40;6.75;;;;;;;;;;5026905;28;20045;-61
2022/05/23 14:55:44;;;;;;;7.55;6.70;;;;;;;;;;5017697;28;20045;-62
2022/05/23 15:01:02;;;;;;;8.27;6.57;;;;;;;;;;5019949;28;20033;-61
2022/05/23 15:03:42;;;;;;;10.55;6.68;;;;;;;;;;5027331;28;20099;-60
2022/05/23 15:06:08;;;;;;;8.57;6.72;;;;;;;;;;5023594;28;20042;-61
2022/05/23 15:08:34;;;;;;;9.00;6.80;;;;;;;;;;5016110;28;20452;-62
2022/05/23 15:11:02;;;;;;;11.45;6.40;;;;;;;;;;5021943;28;20040;-61
2022/05/23 15:13:34;;;;;;;9.73;6.03;;;;;;;;;;5026263;28;20347;-61
2022/05/23 15:16:03;;;;;;;9.23;6.13;;;;;;;;;;5013382;28;20092;-60
2022/05/23 15:18:34;;;;;;;7.55;6.30;;;;;;;;;;5011839;28;20041;-62
2022/05/23 15:21:01;;;;;;;9.57;5.95;;;;;;;;;;5027330;28;20029;-62
2022/05/23 15:23:28;;;;;;;;;;;;;;;;;;5026059;28;20045;-62
2022/05/23 15:25:57;;;;;;;9.88;5.85;;;;;;;;;;5016090;28;19924;-61
2022/05/23 15:28:23;;;;;;;8.68;6.07;;;;;;;;;;5021199;28;20045;-61
2022/05/23 15:30:48;;;;;;;9.13;6.15;;;;;;;;;;5027113;28;20404;-62
2022/05/23 15:33:15;;;;;;;10.38;6.65;;;;;;;;;;5014667;28;20034;-62
2022/05/23 15:35:40;;;;;;;11.48;6.15;;;;;;;;;;5016386;28;20068;-62
2022/05/23 15:38:06;;;;;;;8.32;6.00;;;;;;;;;;5026886;28;20076;-61
2022/05/23 15:40:35;;;;;;;10.80;6.07;;;;;;;;;;5023021;28;20235;-61
2022/05/23 15:43:01;;;;;;;10.98;6.55;;;;;;;;;;5008891;28;20034;-61
2022/05/23 15:45:29;;;;;;;7.88;6.18;;;;;;;;;;5020874;28;20411;-61
2022/05/23 15:48:06;;;;;;;10.30;6.60;;;;;;;;;;5027005;28;20067;-61
2022/05/23 15:50:33;;;;;;;13.52;6.40;;;;;;;;;;5008839;28;20038;-62
2022/05/23 15:52:59;;;;;;;7.18;6.05;;;;;;;;;;5021170;28;20045;-63
2022/05/23 15:55:24;;;;;;;10.90;5.95;;;;;;;;;;5000633;28;20496;-61
2022/05/23 15:57:52;;;;;;;9.20;6.40;;;;;;;;;;5013383;28;20067;-62
2022/05/23 16:00:21;;;;;;;6.75;5.60;;;;;;;;;;5015305;28;20084;-61
2022/05/23 16:02:52;;;;;;;6.10;5.50;;;;;;;;;;5027035;28;20053;-62
2022/05/23 16:05:18;;;;;;;7.03;6.32;;;;;;;;;;4997127;28;20041;-61
2022/05/23 16:07:44;;;;;;;7.20;5.60;;;;;;;;;;5024308;28;20529;-60
2022/05/23 16:10:10;;;;;;;10.50;5.80;;;;;;;;;;5014663;28;20037;-61
2022/05/23 16:12:40;;;;;;;6.07;5.50;;;;;;;;;;5016615;28;20149;-61